Central City, Colorado
Current Conditions -  °F | °C
As of 9:30 AM on Tuesday 21 Oct 2014 (Local Time) from K0CO Reporting Station
Scattered Clouds Scattered Clouds  
Wind Chill: 27°   Ceiling: Unl
Heat Index: 32°   Visibility: 10mi
Dew Point: 30°   Wind: 5mph
Humidity: 93%   Direction: 330°NNW
Pressure: 30.43"   Gusts: NA
Location:  39.8°N, 105.51°W
Report Text: K0CO 211530Z AUTO 33004KT 10SM SCT028 SCT033 00/M01 A3043 RMK AO2
Loading
Personal Weather Stations






























Interactive Weather Map
Tropical Storm Tracking
New forecast layout! Learn more

10-Day Weather Forecast

Advertisements
Track Severe Weather on mobile